Otagawa — JD3046 — position and weather

sailwx.info

Track history (hours):
 
Tides and Currents Weather Stations Pressure Air Temp Water Temp Dewpoint Dewpoint Depression Visibility Wind Speed Wind Dir Waves Ship Positions

Otagawa

Last reported at 2017-Jun-27 17:28 UTC. Time now 2017-Jun-28 19:33 UTC.
Position N 35°02' E 139°44'.

Length 70 m; draft 4 m.

Type: Ship. MMSI: 431001328.

Date/timePositionNaut miles runAvg speedWind from/ knotsBaromVisibWave heightAir tempDewpointWater temp
2017-Jun-27 17:28N 35°02' E 139°44'610.6
2017-Jun-27 16:53N 35°08' E 139°45'410.6
2017-Jun-27 16:30N 35°12' E 139°46'510.5
2017-Jun-27 16:00N 35°17' E 139°45'510.5
2017-Jun-27 15:31N 35°21' E 139°42'3 5.6
2017-Jun-27 15:00N 35°24' E 139°41'0 0.0
2017-Jun-27 14:30N 35°24' E 139°41'0 0.0
2017-Jun-27 13:31N 35°24' E 139°41'0 0.5
2017-Jun-27 13:00N 35°24' E 139°41'0 0.3
2017-Jun-27 12:30N 35°24' E 139°41'1 1.5
2017-Jun-27 12:01N 35°23' E 139°40'0 0.0
2017-Jun-27 11:28N 35°23' E 139°40'0 0.1
2017-Jun-27 10:58N 35°23' E 139°40'0 0.1
2017-Jun-27 10:28N 35°23' E 139°40'0 0.1
2017-Jun-27 09:58N 35°23' E 139°40'0 0.0
2017-Jun-27 09:28N 35°23' E 139°40'0 0.1
2017-Jun-27 09:00N 35°23' E 139°40'4 7.9
2017-Jun-27 08:30N 35°27' E 139°43'1 2.4
2017-Jun-27 08:00N 35°28' E 139°42'0 0.0
2017-Jun-27 07:30N 35°28' E 139°42'0 0.0
2017-Jun-27 07:00N 35°28' E 139°42'0 0.0
2017-Jun-27 06:30N 35°28' E 139°42'0 0.0
2017-Jun-27 06:00N 35°28' E 139°42'0 0.0
2017-Jun-27 05:30N 35°28' E 139°42'1 1.5
2017-Jun-27 05:00N 35°27' E 139°42'0 0.0
2017-Jun-27 04:30N 35°27' E 139°42'0 0.0
2017-Jun-27 04:00N 35°27' E 139°42'0 0.0
2017-Jun-27 03:30N 35°27' E 139°42'0 0.0
2017-Jun-27 03:00N 35°27' E 139°42'0 0.0
2017-Jun-27 02:30N 35°27' E 139°42'0 0.0
2017-Jun-27 02:00N 35°27' E 139°42'0 0.0
2017-Jun-27 01:30N 35°27' E 139°42'0 0.0
2017-Jun-27 01:00N 35°27' E 139°42'0 0.0
2017-Jun-27 00:30N 35°27' E 139°42'0 0.0
2017-Jun-27 00:00N 35°27' E 139°42'0 0.0
2017-Jun-26 23:30N 35°27' E 139°42'0 0.0
2017-Jun-26 23:00N 35°27' E 139°42'0 0.0
2017-Jun-26 22:30N 35°27' E 139°42'0 0.0
2017-Jun-26 22:00N 35°27' E 139°42'0 0.0
2017-Jun-26 21:30N 35°27' E 139°42'0 0.0
2017-Jun-26 21:00N 35°27' E 139°42'0 0.0
2017-Jun-26 20:30N 35°27' E 139°42'0 0.1
2017-Jun-26 20:00N 35°27' E 139°42'0 0.1
2017-Jun-26 19:30N 35°27' E 139°42'0 0.0
2017-Jun-26 19:00N 35°27' E 139°42'0 0.0
2017-Jun-26 18:30N 35°27' E 139°42'0 0.0
2017-Jun-26 18:00N 35°27' E 139°42'0 0.0
2017-Jun-26 17:30N 35°27' E 139°42'0 0.0
2017-Jun-26 17:00N 35°27' E 139°42'0 0.0
2017-Jun-26 16:30N 35°27' E 139°42'0 0.0
2017-Jun-26 16:00N 35°27' E 139°42'0 0.1
2017-Jun-26 15:30N 35°27' E 139°42'0 0.0
2017-Jun-26 15:00N 35°27' E 139°42'0 0.0
2017-Jun-26 14:30N 35°27' E 139°42'0 0.0
2017-Jun-26 13:30N 35°27' E 139°42'0 0.0
2017-Jun-26 13:00N 35°27' E 139°42'0 0.0
2017-Jun-26 12:30N 35°27' E 139°42'0 0.0
2017-Jun-26 12:00N 35°27' E 139°42'0 0.1
2017-Jun-26 11:30N 35°27' E 139°42'0 0.0
2017-Jun-26 11:00N 35°27' E 139°42'0 0.1
2017-Jun-26 10:30N 35°27' E 139°42'0 0.0
2017-Jun-26 10:00N 35°27' E 139°42'0 0.1
2017-Jun-26 09:30N 35°27' E 139°42'0 0.0
2017-Jun-26 09:00N 35°27' E 139°42'0 0.0
2017-Jun-26 08:30N 35°27' E 139°42'0 0.0
2017-Jun-26 08:00N 35°27' E 139°42'0 0.0
2017-Jun-26 07:30N 35°27' E 139°42'0 0.0
2017-Jun-26 07:00N 35°27' E 139°42'0 0.0
2017-Jun-26 06:30N 35°27' E 139°42'0 0.0
2017-Jun-26 06:00N 35°27' E 139°42'1 2.4
2017-Jun-26 05:30N 35°26' E 139°42'611.2
2017-Jun-26 05:00N 35°20' E 139°43'611.0
2017-Jun-26 04:30N 35°16' E 139°47'510.2
2017-Jun-26 04:00N 35°10' E 139°46'  
2017-Jun-20 14:31N 35°02' E 139°44'610.3
2017-Jun-20 13:58N 35°07' E 139°45'510.2
2017-Jun-20 13:30N 35°12' E 139°46'5 9.6
2017-Jun-20 13:00N 35°16' E 139°46'510.0
2017-Jun-20 12:30N 35°21' E 139°42'4 7.3
2017-Jun-20 12:00N 35°24' E 139°41'0 0.0
2017-Jun-20 11:30N 35°24' E 139°41'0 0.0
2017-Jun-20 11:00N 35°24' E 139°41'0 0.0
2017-Jun-20 10:30N 35°24' E 139°41'0 0.0
2017-Jun-20 10:00N 35°24' E 139°41'1 2.1
2017-Jun-20 09:30N 35°23' E 139°40'0 0.0
2017-Jun-20 09:00N 35°23' E 139°40'0 0.0
2017-Jun-20 08:30N 35°23' E 139°40'0 0.0
2017-Jun-20 08:00N 35°23' E 139°40'0 0.1
2017-Jun-20 07:30N 35°23' E 139°40'0 0.0
2017-Jun-20 07:00N 35°23' E 139°40'0 0.0
2017-Jun-20 06:30N 35°23' E 139°40'0 0.1
2017-Jun-20 06:00N 35°23' E 139°40'0 0.0
2017-Jun-20 05:30N 35°23' E 139°40'0 0.1
2017-Jun-20 05:00N 35°23' E 139°40'0 0.0
2017-Jun-20 04:30N 35°23' E 139°40'0 0.0
2017-Jun-20 04:00N 35°23' E 139°40'0 0.1
2017-Jun-20 03:30N 35°23' E 139°40'0 0.0
2017-Jun-20 03:00N 35°23' E 139°40'0 0.0
2017-Jun-20 02:30N 35°23' E 139°40'0 0.1
2017-Jun-20 02:00N 35°23' E 139°40'0 0.1
2017-Jun-20 01:30N 35°23' E 139°40'0 0.0
2017-Jun-20 01:00N 35°23' E 139°40'0 0.0
2017-Jun-20 00:30N 35°23' E 139°40'0 0.0
2017-Jun-20 00:00N 35°23' E 139°40'0 0.0
2017-Jun-19 23:30N 35°23' E 139°40'0 0.0
2017-Jun-19 23:00N 35°23' E 139°40'0 0.0
2017-Jun-19 22:30N 35°23' E 139°40'0 0.0
2017-Jun-19 22:00N 35°23' E 139°40'0 0.0
2017-Jun-19 21:30N 35°23' E 139°40'0 0.0
2017-Jun-19 21:00N 35°23' E 139°40'0 0.0
2017-Jun-19 20:30N 35°23' E 139°40'0 0.0
2017-Jun-19 20:00N 35°23' E 139°40'0 0.0
2017-Jun-19 19:30N 35°23' E 139°40'0 0.0
2017-Jun-19 19:00N 35°23' E 139°40'0 0.0
2017-Jun-19 18:30N 35°23' E 139°40'0 0.1
2017-Jun-19 18:00N 35°23' E 139°40'0 0.0
2017-Jun-19 17:30N 35°23' E 139°40'0 0.0
2017-Jun-19 17:00N 35°23' E 139°40'0 0.0
2017-Jun-19 16:30N 35°23' E 139°40'0 0.0
2017-Jun-19 16:00N 35°23' E 139°40'0 0.0
2017-Jun-19 15:30N 35°23' E 139°40'0 0.1
2017-Jun-19 15:00N 35°23' E 139°40'0 0.0
2017-Jun-19 14:00N 35°23' E 139°40'0 0.0
2017-Jun-19 13:30N 35°23' E 139°40'0 0.0
2017-Jun-19 13:00N 35°23' E 139°40'0 0.1
2017-Jun-19 12:30N 35°23' E 139°40'0 0.0
2017-Jun-19 12:00N 35°23' E 139°40'0 0.0
2017-Jun-19 11:30N 35°23' E 139°40'0 0.1
2017-Jun-19 11:00N 35°23' E 139°40'0 0.1
2017-Jun-19 10:30N 35°23' E 139°40'0 0.1
2017-Jun-19 10:00N 35°23' E 139°40'0 0.0
2017-Jun-19 09:30N 35°23' E 139°40'0 0.0
2017-Jun-19 09:00N 35°23' E 139°40'0 0.0
2017-Jun-19 08:30N 35°23' E 139°40'0 0.0
2017-Jun-19 08:00N 35°23' E 139°40'0 0.7
2017-Jun-19 07:30N 35°23' E 139°41'5 9.1
2017-Jun-19 07:00N 35°28' E 139°42'0 0.6
2017-Jun-19 06:30N 35°28' E 139°42'0 0.0
2017-Jun-19 06:00N 35°28' E 139°42'0 0.0
2017-Jun-19 05:30N 35°28' E 139°42'0 0.0
2017-Jun-19 05:00N 35°28' E 139°42'0 0.0
2017-Jun-19 04:30N 35°28' E 139°42'1 2.1
2017-Jun-19 04:00N 35°27' E 139°43'5 9.2
2017-Jun-19 03:30N 35°23' E 139°46'5 9.9
2017-Jun-19 03:00N 35°18' E 139°45'510.1
2017-Jun-19 02:30N 35°14' E 139°47'510.0
2017-Jun-19 02:00N 35°09' E 139°46'  
Track history (hours):
 
Tides and Currents Weather Stations Pressure Air Temp Water Temp Dewpoint Dewpoint Depression Visibility Wind Speed Wind Dir Waves Ship Positions

Otagawa

Last reported at 2017-Jun-27 17:28 UTC. Time now 2017-Jun-28 19:33 UTC.
Position N 35°02' E 139°44'.

Length 70 m; draft 4 m.

Type: Ship. MMSI: 431001328.

Date/timePositionNaut miles runAvg speedWind from/ knotsBaromVisibWave heightAir tempDewpointWater temp
2017-Jun-27 17:28N 35°02' E 139°44'610.6
2017-Jun-27 16:53N 35°08' E 139°45'410.6
2017-Jun-27 16:30N 35°12' E 139°46'510.5
2017-Jun-27 16:00N 35°17' E 139°45'510.5
2017-Jun-27 15:31N 35°21' E 139°42'3 5.6
2017-Jun-27 15:00N 35°24' E 139°41'0 0.0
2017-Jun-27 14:30N 35°24' E 139°41'0 0.0
2017-Jun-27 13:31N 35°24' E 139°41'0 0.5
2017-Jun-27 13:00N 35°24' E 139°41'0 0.3
2017-Jun-27 12:30N 35°24' E 139°41'1 1.5
2017-Jun-27 12:01N 35°23' E 139°40'0 0.0
2017-Jun-27 11:28N 35°23' E 139°40'0 0.1
2017-Jun-27 10:58N 35°23' E 139°40'0 0.1
2017-Jun-27 10:28N 35°23' E 139°40'0 0.1
2017-Jun-27 09:58N 35°23' E 139°40'0 0.0
2017-Jun-27 09:28N 35°23' E 139°40'0 0.1
2017-Jun-27 09:00N 35°23' E 139°40'4 7.9
2017-Jun-27 08:30N 35°27' E 139°43'1 2.4
2017-Jun-27 08:00N 35°28' E 139°42'0 0.0
2017-Jun-27 07:30N 35°28' E 139°42'0 0.0
2017-Jun-27 07:00N 35°28' E 139°42'0 0.0
2017-Jun-27 06:30N 35°28' E 139°42'0 0.0
2017-Jun-27 06:00N 35°28' E 139°42'0 0.0
2017-Jun-27 05:30N 35°28' E 139°42'1 1.5
2017-Jun-27 05:00N 35°27' E 139°42'0 0.0
2017-Jun-27 04:30N 35°27' E 139°42'0 0.0
2017-Jun-27 04:00N 35°27' E 139°42'0 0.0
2017-Jun-27 03:30N 35°27' E 139°42'0 0.0
2017-Jun-27 03:00N 35°27' E 139°42'0 0.0
2017-Jun-27 02:30N 35°27' E 139°42'0 0.0
2017-Jun-27 02:00N 35°27' E 139°42'0 0.0
2017-Jun-27 01:30N 35°27' E 139°42'0 0.0
2017-Jun-27 01:00N 35°27' E 139°42'0 0.0
2017-Jun-27 00:30N 35°27' E 139°42'0 0.0
2017-Jun-27 00:00N 35°27' E 139°42'0 0.0
2017-Jun-26 23:30N 35°27' E 139°42'0 0.0
2017-Jun-26 23:00N 35°27' E 139°42'0 0.0
2017-Jun-26 22:30N 35°27' E 139°42'0 0.0
2017-Jun-26 22:00N 35°27' E 139°42'0 0.0
2017-Jun-26 21:30N 35°27' E 139°42'0 0.0
2017-Jun-26 21:00N 35°27' E 139°42'0 0.0
2017-Jun-26 20:30N 35°27' E 139°42'0 0.1
2017-Jun-26 20:00N 35°27' E 139°42'0 0.1
2017-Jun-26 19:30N 35°27' E 139°42'0 0.0
2017-Jun-26 19:00N 35°27' E 139°42'0 0.0
2017-Jun-26 18:30N 35°27' E 139°42'0 0.0
2017-Jun-26 18:00N 35°27' E 139°42'0 0.0
2017-Jun-26 17:30N 35°27' E 139°42'0 0.0
2017-Jun-26 17:00N 35°27' E 139°42'0 0.0
2017-Jun-26 16:30N 35°27' E 139°42'0 0.0
2017-Jun-26 16:00N 35°27' E 139°42'0 0.1
2017-Jun-26 15:30N 35°27' E 139°42'0 0.0
2017-Jun-26 15:00N 35°27' E 139°42'0 0.0
2017-Jun-26 14:30N 35°27' E 139°42'0 0.0
2017-Jun-26 13:30N 35°27' E 139°42'0 0.0
2017-Jun-26 13:00N 35°27' E 139°42'0 0.0
2017-Jun-26 12:30N 35°27' E 139°42'0 0.0
2017-Jun-26 12:00N 35°27' E 139°42'0 0.1
2017-Jun-26 11:30N 35°27' E 139°42'0 0.0
2017-Jun-26 11:00N 35°27' E 139°42'0 0.1
2017-Jun-26 10:30N 35°27' E 139°42'0 0.0
2017-Jun-26 10:00N 35°27' E 139°42'0 0.1
2017-Jun-26 09:30N 35°27' E 139°42'0 0.0
2017-Jun-26 09:00N 35°27' E 139°42'0 0.0
2017-Jun-26 08:30N 35°27' E 139°42'0 0.0
2017-Jun-26 08:00N 35°27' E 139°42'0 0.0
2017-Jun-26 07:30N 35°27' E 139°42'0 0.0
2017-Jun-26 07:00N 35°27' E 139°42'0 0.0
2017-Jun-26 06:30N 35°27' E 139°42'0 0.0
2017-Jun-26 06:00N 35°27' E 139°42'1 2.4
2017-Jun-26 05:30N 35°26' E 139°42'611.2
2017-Jun-26 05:00N 35°20' E 139°43'611.0
2017-Jun-26 04:30N 35°16' E 139°47'510.2
2017-Jun-26 04:00N 35°10' E 139°46'  
2017-Jun-20 14:31N 35°02' E 139°44'610.3
2017-Jun-20 13:58N 35°07' E 139°45'510.2
2017-Jun-20 13:30N 35°12' E 139°46'5 9.6
2017-Jun-20 13:00N 35°16' E 139°46'510.0
2017-Jun-20 12:30N 35°21' E 139°42'4 7.3
2017-Jun-20 12:00N 35°24' E 139°41'0 0.0
2017-Jun-20 11:30N 35°24' E 139°41'0 0.0
2017-Jun-20 11:00N 35°24' E 139°41'0 0.0
2017-Jun-20 10:30N 35°24' E 139°41'0 0.0
2017-Jun-20 10:00N 35°24' E 139°41'1 2.1
2017-Jun-20 09:30N 35°23' E 139°40'0 0.0
2017-Jun-20 09:00N 35°23' E 139°40'0 0.0
2017-Jun-20 08:30N 35°23' E 139°40'0 0.0
2017-Jun-20 08:00N 35°23' E 139°40'0 0.1
2017-Jun-20 07:30N 35°23' E 139°40'0 0.0
2017-Jun-20 07:00N 35°23' E 139°40'0 0.0
2017-Jun-20 06:30N 35°23' E 139°40'0 0.1
2017-Jun-20 06:00N 35°23' E 139°40'0 0.0
2017-Jun-20 05:30N 35°23' E 139°40'0 0.1
2017-Jun-20 05:00N 35°23' E 139°40'0 0.0
2017-Jun-20 04:30N 35°23' E 139°40'0 0.0
2017-Jun-20 04:00N 35°23' E 139°40'0 0.1
2017-Jun-20 03:30N 35°23' E 139°40'0 0.0
2017-Jun-20 03:00N 35°23' E 139°40'0 0.0
2017-Jun-20 02:30N 35°23' E 139°40'0 0.1
2017-Jun-20 02:00N 35°23' E 139°40'0 0.1
2017-Jun-20 01:30N 35°23' E 139°40'0 0.0
2017-Jun-20 01:00N 35°23' E 139°40'0 0.0
2017-Jun-20 00:30N 35°23' E 139°40'0 0.0
2017-Jun-20 00:00N 35°23' E 139°40'0 0.0
2017-Jun-19 23:30N 35°23' E 139°40'0 0.0
2017-Jun-19 23:00N 35°23' E 139°40'0 0.0
2017-Jun-19 22:30N 35°23' E 139°40'0 0.0
2017-Jun-19 22:00N 35°23' E 139°40'0 0.0
2017-Jun-19 21:30N 35°23' E 139°40'0 0.0
2017-Jun-19 21:00N 35°23' E 139°40'0 0.0
2017-Jun-19 20:30N 35°23' E 139°40'0 0.0
2017-Jun-19 20:00N 35°23' E 139°40'0 0.0
2017-Jun-19 19:30N 35°23' E 139°40'0 0.0
2017-Jun-19 19:00N 35°23' E 139°40'0 0.0
2017-Jun-19 18:30N 35°23' E 139°40'0 0.1
2017-Jun-19 18:00N 35°23' E 139°40'0 0.0
2017-Jun-19 17:30N 35°23' E 139°40'0 0.0
2017-Jun-19 17:00N 35°23' E 139°40'0 0.0
2017-Jun-19 16:30N 35°23' E 139°40'0 0.0
2017-Jun-19 16:00N 35°23' E 139°40'0 0.0
2017-Jun-19 15:30N 35°23' E 139°40'0 0.1
2017-Jun-19 15:00N 35°23' E 139°40'0 0.0
2017-Jun-19 14:00N 35°23' E 139°40'0 0.0
2017-Jun-19 13:30N 35°23' E 139°40'0 0.0
2017-Jun-19 13:00N 35°23' E 139°40'0 0.1
2017-Jun-19 12:30N 35°23' E 139°40'0 0.0
2017-Jun-19 12:00N 35°23' E 139°40'0 0.0
2017-Jun-19 11:30N 35°23' E 139°40'0 0.1
2017-Jun-19 11:00N 35°23' E 139°40'0 0.1
2017-Jun-19 10:30N 35°23' E 139°40'0 0.1
2017-Jun-19 10:00N 35°23' E 139°40'0 0.0
2017-Jun-19 09:30N 35°23' E 139°40'0 0.0
2017-Jun-19 09:00N 35°23' E 139°40'0 0.0
2017-Jun-19 08:30N 35°23' E 139°40'0 0.0
2017-Jun-19 08:00N 35°23' E 139°40'0 0.7
2017-Jun-19 07:30N 35°23' E 139°41'5 9.1
2017-Jun-19 07:00N 35°28' E 139°42'0 0.6
2017-Jun-19 06:30N 35°28' E 139°42'0 0.0
2017-Jun-19 06:00N 35°28' E 139°42'0 0.0
2017-Jun-19 05:30N 35°28' E 139°42'0 0.0
2017-Jun-19 05:00N 35°28' E 139°42'0 0.0
2017-Jun-19 04:30N 35°28' E 139°42'1 2.1
2017-Jun-19 04:00N 35°27' E 139°43'5 9.2
2017-Jun-19 03:30N 35°23' E 139°46'5 9.9
2017-Jun-19 03:00N 35°18' E 139°45'510.1
2017-Jun-19 02:30N 35°14' E 139°47'510.0
2017-Jun-19 02:00N 35°09' E 139°46'  

Dump ship's entire track history